sensor_id;sensor_type;location;lat;lon;timestamp;pressure;altitude;pressure_sealevel;temperature;humidity
32237;BME280;18726;44.732;10.550;2022-12-07T00:02:28;100948.25;;;9.18;100.00
32237;BME280;18726;44.732;10.550;2022-12-07T00:05:32;100953.66;;;9.38;100.00
32237;BME280;18726;44.732;10.550;2022-12-07T00:08:36;100951.00;;;9.30;100.00
32237;BME280;18726;44.732;10.550;2022-12-07T00:11:40;100950.31;;;9.54;100.00
32237;BME280;18726;44.732;10.550;2022-12-07T00:14:44;100942.22;;;9.33;100.00
32237;BME280;18726;44.732;10.550;2022-12-07T00:17:47;100943.16;;;8.66;100.00
32237;BME280;18726;44.732;10.550;2022-12-07T00:20:51;100953.47;;;8.26;100.00
32237;BME280;18726;44.732;10.550;2022-12-07T00:23:56;100945.13;;;8.01;100.00
32237;BME280;18726;44.732;10.550;2022-12-07T00:27:00;100935.97;;;8.23;100.00
32237;BME280;18726;44.732;10.550;2022-12-07T00:30:04;100930.41;;;8.37;100.00
32237;BME280;18726;44.732;10.550;2022-12-07T00:33:08;100922.00;;;8.59;100.00
32237;BME280;18726;44.732;10.550;2022-12-07T00:36:15;100925.88;;;9.00;100.00
32237;BME280;18726;44.732;10.550;2022-12-07T00:39:18;100910.91;;;9.23;100.00
32237;BME280;18726;44.732;10.550;2022-12-07T00:42:22;100914.91;;;8.96;100.00
32237;BME280;18726;44.732;10.550;2022-12-07T00:45:25;100914.84;;;8.55;100.00
32237;BME280;18726;44.732;10.550;2022-12-07T00:48:29;100910.19;;;8.26;100.00
32237;BME280;18726;44.732;10.550;2022-12-07T00:51:33;100908.75;;;8.37;100.00
32237;BME280;18726;44.732;10.550;2022-12-07T00:54:36;100906.94;;;8.70;100.00
32237;BME280;18726;44.732;10.550;2022-12-07T00:57:40;100913.09;;;8.59;100.00
32237;BME280;18726;44.732;10.550;2022-12-07T01:00:44;100907.69;;;8.79;100.00
32237;BME280;18726;44.732;10.550;2022-12-07T01:03:48;100904.84;;;8.76;100.00
32237;BME280;18726;44.732;10.550;2022-12-07T01:06:52;100905.91;;;8.84;100.00
32237;BME280;18726;44.732;10.550;2022-12-07T01:09:56;100906.25;;;9.03;100.00
32237;BME280;18726;44.732;10.550;2022-12-07T01:12:59;100906.06;;;9.08;100.00
32237;BME280;18726;44.732;10.550;2022-12-07T01:16:05;100908.63;;;9.25;100.00
32237;BME280;18726;44.732;10.550;2022-12-07T01:19:10;100895.00;;;9.67;100.00
32237;BME280;18726;44.732;10.550;2022-12-07T01:22:13;100905.94;;;9.91;100.00
32237;BME280;18726;44.732;10.550;2022-12-07T01:25:18;100909.00;;;10.14;100.00
32237;BME280;18726;44.732;10.550;2022-12-07T01:28:22;100900.69;;;10.19;100.00
32237;BME280;18726;44.732;10.550;2022-12-07T01:31:27;100910.72;;;10.19;100.00
32237;BME280;18726;44.732;10.550;2022-12-07T01:34:30;100906.69;;;10.25;100.00
32237;BME280;18726;44.732;10.550;2022-12-07T01:37:38;100906.47;;;10.42;100.00
32237;BME280;18726;44.732;10.550;2022-12-07T01:40:41;100911.44;;;10.40;100.00
32237;BME280;18726;44.732;10.550;2022-12-07T01:47:11;100909.59;;;10.07;100.00
32237;BME280;18726;44.732;10.550;2022-12-07T01:50:14;100915.03;;;10.07;100.00
32237;BME280;18726;44.732;10.550;2022-12-07T01:53:19;100912.53;;;10.02;100.00
32237;BME280;18726;44.732;10.550;2022-12-07T01:56:26;100909.88;;;9.48;100.00
32237;BME280;18726;44.732;10.550;2022-12-07T01:59:30;100904.47;;;9.48;100.00
32237;BME280;18726;44.732;10.550;2022-12-07T02:02:37;100903.19;;;9.79;100.00
32237;BME280;18726;44.732;10.550;2022-12-07T02:05:41;100898.84;;;9.66;100.00
32237;BME280;18726;44.732;10.550;2022-12-07T02:08:46;100898.44;;;9.76;100.00
32237;BME280;18726;44.732;10.550;2022-12-07T02:11:50;100896.88;;;9.87;100.00
32237;BME280;18726;44.732;10.550;2022-12-07T02:14:54;100894.03;;;9.18;100.00
32237;BME280;18726;44.732;10.550;2022-12-07T02:18:09;100901.28;;;8.84;100.00
32237;BME280;18726;44.732;10.550;2022-12-07T02:31:21;100889.00;;;8.87;100.00
32237;BME280;18726;44.732;10.550;2022-12-07T02:35:04;100877.22;;;9.45;100.00
32237;BME280;18726;44.732;10.550;2022-12-07T02:41:20;100867.91;;;9.67;100.00
32237;BME280;18726;44.732;10.550;2022-12-07T02:44:27;100871.72;;;9.66;100.00
32237;BME280;18726;44.732;10.550;2022-12-07T02:47:33;100881.31;;;9.63;100.00
32237;BME280;18726;44.732;10.550;2022-12-07T02:50:37;100876.59;;;9.06;100.00
32237;BME280;18726;44.732;10.550;2022-12-07T02:53:43;100877.47;;;9.31;100.00
32237;BME280;18726;44.732;10.550;2022-12-07T03:03:15;100880.53;;;9.63;100.00
32237;BME280;18726;44.732;10.550;2022-12-07T03:06:28;100866.31;;;9.66;100.00
32237;BME280;18726;44.732;10.550;2022-12-07T03:09:45;100875.63;;;9.77;100.00
32237;BME280;18726;44.732;10.550;2022-12-07T03:19:40;100872.84;;;9.53;100.00
32237;BME280;18726;44.732;10.550;2022-12-07T03:22:45;100860.22;;;9.69;100.00
32237;BME280;18726;44.732;10.550;2022-12-07T03:25:55;100862.47;;;9.34;100.00
32237;BME280;18726;44.732;10.550;2022-12-07T03:29:05;100851.03;;;9.61;100.00
32237;BME280;18726;44.732;10.550;2022-12-07T03:32:29;100856.16;;;9.87;100.00
32237;BME280;18726;44.732;10.550;2022-12-07T03:35:49;100845.56;;;9.94;100.00
32237;BME280;18726;44.732;10.550;2022-12-07T03:42:12;100851.47;;;8.76;100.00
32237;BME280;18726;44.732;10.550;2022-12-07T03:45:16;100854.00;;;8.82;100.00
32237;BME280;18726;44.732;10.550;2022-12-07T03:48:27;100848.16;;;8.50;100.00
32237;BME280;18726;44.732;10.550;2022-12-07T03:51:39;100854.50;;;8.16;100.00
32237;BME280;18726;44.732;10.550;2022-12-07T03:58:06;100845.78;;;8.10;100.00
32237;BME280;18726;44.732;10.550;2022-12-07T04:01:11;100846.00;;;7.97;100.00
32237;BME280;18726;44.732;10.550;2022-12-07T04:04:15;100845.84;;;7.93;100.00
32237;BME280;18726;44.732;10.550;2022-12-07T04:07:19;100842.72;;;8.50;100.00
32237;BME280;18726;44.732;10.550;2022-12-07T04:10:22;100840.34;;;8.49;100.00
32237;BME280;18726;44.732;10.550;2022-12-07T04:13:26;100847.28;;;7.99;100.00
32237;BME280;18726;44.732;10.550;2022-12-07T04:16:30;100843.91;;;7.56;100.00
32237;BME280;18726;44.732;10.550;2022-12-07T04:19:34;100837.84;;;7.59;100.00
32237;BME280;18726;44.732;10.550;2022-12-07T04:22:38;100838.38;;;7.43;100.00
32237;BME280;18726;44.732;10.550;2022-12-07T04:25:42;100837.09;;;7.50;100.00
32237;BME280;18726;44.732;10.550;2022-12-07T04:28:45;100827.63;;;7.73;100.00
32237;BME280;18726;44.732;10.550;2022-12-07T04:31:50;100822.28;;;8.02;100.00
32237;BME280;18726;44.732;10.550;2022-12-07T04:34:54;100825.59;;;8.08;100.00
32237;BME280;18726;44.732;10.550;2022-12-07T04:37:57;100823.69;;;8.38;100.00
32237;BME280;18726;44.732;10.550;2022-12-07T04:41:06;100829.88;;;8.38;100.00
32237;BME280;18726;44.732;10.550;2022-12-07T04:44:12;100837.75;;;8.23;100.00
32237;BME280;18726;44.732;10.550;2022-12-07T04:47:17;100832.63;;;8.30;100.00
32237;BME280;18726;44.732;10.550;2022-12-07T04:50:21;100827.88;;;8.27;100.00
32237;BME280;18726;44.732;10.550;2022-12-07T04:53:25;100834.59;;;8.21;100.00
32237;BME280;18726;44.732;10.550;2022-12-07T04:56:29;100834.22;;;8.01;100.00
32237;BME280;18726;44.732;10.550;2022-12-07T04:59:33;100846.16;;;8.00;100.00
32237;BME280;18726;44.732;10.550;2022-12-07T05:02:37;100832.97;;;8.37;100.00
32237;BME280;18726;44.732;10.550;2022-12-07T05:05:41;100831.72;;;8.55;100.00
32237;BME280;18726;44.732;10.550;2022-12-07T05:08:45;100835.66;;;8.37;100.00
32237;BME280;18726;44.732;10.550;2022-12-07T05:11:49;100838.09;;;8.51;100.00
32237;BME280;18726;44.732;10.550;2022-12-07T05:14:53;100837.69;;;8.40;100.00
32237;BME280;18726;44.732;10.550;2022-12-07T05:17:57;100840.72;;;8.38;100.00
32237;BME280;18726;44.732;10.550;2022-12-07T05:21:00;100833.78;;;8.58;100.00
32237;BME280;18726;44.732;10.550;2022-12-07T05:24:06;100830.34;;;8.40;100.00
32237;BME280;18726;44.732;10.550;2022-12-07T05:27:11;100829.59;;;8.31;100.00
32237;BME280;18726;44.732;10.550;2022-12-07T05:30:15;100839.13;;;8.37;100.00
32237;BME280;18726;44.732;10.550;2022-12-07T05:33:18;100828.75;;;8.69;100.00
32237;BME280;18726;44.732;10.550;2022-12-07T05:36:23;100825.88;;;8.44;100.00
32237;BME280;18726;44.732;10.550;2022-12-07T05:39:27;100824.91;;;8.49;100.00
32237;BME280;18726;44.732;10.550;2022-12-07T05:42:30;100830.59;;;8.56;100.00
32237;BME280;18726;44.732;10.550;2022-12-07T05:45:34;100831.53;;;8.81;100.00
32237;BME280;18726;44.732;10.550;2022-12-07T05:48:38;100835.34;;;8.80;100.00
32237;BME280;18726;44.732;10.550;2022-12-07T05:51:42;100838.91;;;8.72;100.00
32237;BME280;18726;44.732;10.550;2022-12-07T05:54:46;100834.41;;;8.55;100.00
32237;BME280;18726;44.732;10.550;2022-12-07T05:57:51;100826.91;;;8.82;100.00
32237;BME280;18726;44.732;10.550;2022-12-07T06:01:13;100835.47;;;9.04;100.00
32237;BME280;18726;44.732;10.550;2022-12-07T06:04:17;100832.16;;;8.99;100.00
32237;BME280;18726;44.732;10.550;2022-12-07T06:07:21;100831.34;;;8.65;100.00
32237;BME280;18726;44.732;10.550;2022-12-07T06:10:25;100836.00;;;8.56;100.00
32237;BME280;18726;44.732;10.550;2022-12-07T06:13:29;100842.34;;;8.60;100.00
32237;BME280;18726;44.732;10.550;2022-12-07T06:16:33;100846.34;;;8.25;100.00
32237;BME280;18726;44.732;10.550;2022-12-07T06:19:36;100840.28;;;7.98;100.00
32237;BME280;18726;44.732;10.550;2022-12-07T06:22:40;100840.81;;;8.12;100.00
32237;BME280;18726;44.732;10.550;2022-12-07T06:25:47;100842.19;;;8.36;100.00
32237;BME280;18726;44.732;10.550;2022-12-07T06:28:51;100849.13;;;8.45;100.00
32237;BME280;18726;44.732;10.550;2022-12-07T06:31:55;100838.53;;;8.61;100.00
32237;BME280;18726;44.732;10.550;2022-12-07T06:34:59;100836.53;;;8.70;100.00
32237;BME280;18726;44.732;10.550;2022-12-07T06:38:03;100849.88;;;8.75;100.00
32237;BME280;18726;44.732;10.550;2022-12-07T06:41:07;100840.75;;;9.01;100.00
32237;BME280;18726;44.732;10.550;2022-12-07T06:44:11;100844.59;;;9.00;100.00
32237;BME280;18726;44.732;10.550;2022-12-07T06:47:15;100844.84;;;9.07;100.00
32237;BME280;18726;44.732;10.550;2022-12-07T06:50:19;100852.19;;;9.06;100.00
32237;BME280;18726;44.732;10.550;2022-12-07T06:53:23;100850.66;;;8.97;100.00
32237;BME280;18726;44.732;10.550;2022-12-07T06:56:26;100859.22;;;8.87;100.00
32237;BME280;18726;44.732;10.550;2022-12-07T06:59:30;100854.78;;;8.61;100.00
32237;BME280;18726;44.732;10.550;2022-12-07T07:02:34;100855.38;;;8.37;100.00
32237;BME280;18726;44.732;10.550;2022-12-07T07:05:38;100867.78;;;8.38;100.00
32237;BME280;18726;44.732;10.550;2022-12-07T07:08:42;100863.75;;;8.53;100.00
32237;BME280;18726;44.732;10.550;2022-12-07T07:11:45;100875.09;;;8.67;100.00
32237;BME280;18726;44.732;10.550;2022-12-07T07:14:49;100872.47;;;9.00;100.00
32237;BME280;18726;44.732;10.550;2022-12-07T07:17:53;100878.97;;;9.08;100.00
32237;BME280;18726;44.732;10.550;2022-12-07T07:20:57;100882.13;;;9.10;100.00
32237;BME280;18726;44.732;10.550;2022-12-07T07:24:01;100878.03;;;9.04;100.00
32237;BME280;18726;44.732;10.550;2022-12-07T07:27:05;100877.38;;;9.07;100.00
32237;BME280;18726;44.732;10.550;2022-12-07T07:30:09;100877.22;;;9.24;100.00
32237;BME280;18726;44.732;10.550;2022-12-07T07:33:13;100883.09;;;9.47;100.00
32237;BME280;18726;44.732;10.550;2022-12-07T07:36:17;100886.94;;;9.46;100.00
32237;BME280;18726;44.732;10.550;2022-12-07T07:39:21;100882.09;;;9.52;100.00
32237;BME280;18726;44.732;10.550;2022-12-07T07:42:25;100892.63;;;9.65;100.00
32237;BME280;18726;44.732;10.550;2022-12-07T07:45:29;100886.91;;;9.79;100.00
32237;BME280;18726;44.732;10.550;2022-12-07T07:48:33;100887.59;;;9.76;100.00
32237;BME280;18726;44.732;10.550;2022-12-07T07:51:37;100901.22;;;9.67;100.00
32237;BME280;18726;44.732;10.550;2022-12-07T07:54:40;100901.84;;;9.85;100.00
32237;BME280;18726;44.732;10.550;2022-12-07T07:57:44;100908.63;;;9.79;100.00
32237;BME280;18726;44.732;10.550;2022-12-07T08:00:48;100915.38;;;9.73;100.00
32237;BME280;18726;44.732;10.550;2022-12-07T08:03:52;100910.75;;;9.73;100.00
32237;BME280;18726;44.732;10.550;2022-12-07T08:06:56;100915.41;;;9.85;100.00
32237;BME280;18726;44.732;10.550;2022-12-07T08:10:00;100909.75;;;9.90;100.00
32237;BME280;18726;44.732;10.550;2022-12-07T08:13:04;100919.34;;;9.75;100.00
32237;BME280;18726;44.732;10.550;2022-12-07T08:16:14;100926.72;;;9.87;100.00
32237;BME280;18726;44.732;10.550;2022-12-07T08:19:18;100917.50;;;10.12;100.00
32237;BME280;18726;44.732;10.550;2022-12-07T08:22:22;100929.56;;;10.36;100.00
32237;BME280;18726;44.732;10.550;2022-12-07T08:25:27;100925.69;;;10.49;100.00
32237;BME280;18726;44.732;10.550;2022-12-07T08:28:31;100931.94;;;10.49;100.00
32237;BME280;18726;44.732;10.550;2022-12-07T08:31:36;100938.50;;;10.48;100.00
32237;BME280;18726;44.732;10.550;2022-12-07T08:34:39;100936.44;;;10.70;100.00
32237;BME280;18726;44.732;10.550;2022-12-07T08:37:43;100933.28;;;10.43;100.00
32237;BME280;18726;44.732;10.550;2022-12-07T08:40:54;100945.75;;;9.99;100.00
32237;BME280;18726;44.732;10.550;2022-12-07T08:43:59;100935.34;;;10.13;100.00
32237;BME280;18726;44.732;10.550;2022-12-07T08:47:05;100937.47;;;10.29;100.00
32237;BME280;18726;44.732;10.550;2022-12-07T08:50:11;100945.50;;;10.37;100.00
32237;BME280;18726;44.732;10.550;2022-12-07T08:53:15;100947.00;;;10.59;100.00
32237;BME280;18726;44.732;10.550;2022-12-07T08:56:19;100953.78;;;10.53;100.00
32237;BME280;18726;44.732;10.550;2022-12-07T08:59:23;100947.91;;;10.39;100.00
32237;BME280;18726;44.732;10.550;2022-12-07T09:02:28;100950.72;;;10.55;100.00
32237;BME280;18726;44.732;10.550;2022-12-07T09:05:32;100952.88;;;10.49;100.00
32237;BME280;18726;44.732;10.550;2022-12-07T09:08:41;100948.81;;;10.67;100.00
32237;BME280;18726;44.732;10.550;2022-12-07T09:11:45;100958.63;;;10.72;100.00
32237;BME280;18726;44.732;10.550;2022-12-07T09:14:49;100959.84;;;10.99;100.00
32237;BME280;18726;44.732;10.550;2022-12-07T09:17:53;100956.38;;;11.38;100.00
32237;BME280;18726;44.732;10.550;2022-12-07T09:20:56;100961.03;;;11.78;100.00
32237;BME280;18726;44.732;10.550;2022-12-07T09:24:00;100960.81;;;12.14;100.00
32237;BME280;18726;44.732;10.550;2022-12-07T09:27:04;100967.25;;;12.22;100.00
32237;BME280;18726;44.732;10.550;2022-12-07T09:30:08;100962.94;;;12.52;100.00
32237;BME280;18726;44.732;10.550;2022-12-07T09:33:12;100962.94;;;13.19;100.00
32237;BME280;18726;44.732;10.550;2022-12-07T09:36:16;100964.81;;;13.92;100.00
32237;BME280;18726;44.732;10.550;2022-12-07T09:39:19;100975.44;;;14.62;100.00
32237;BME280;18726;44.732;10.550;2022-12-07T09:42:26;100979.06;;;15.23;100.00
32237;BME280;18726;44.732;10.550;2022-12-07T09:45:35;100980.97;;;16.60;100.00
32237;BME280;18726;44.732;10.550;2022-12-07T09:48:40;100973.78;;;19.49;85.66
32237;BME280;18726;44.732;10.550;2022-12-07T09:51:46;100977.97;;;21.31;65.00
32237;BME280;18726;44.732;10.550;2022-12-07T09:54:51;100981.34;;;22.33;65.21
32237;BME280;18726;44.732;10.550;2022-12-07T09:57:57;100975.91;;;22.76;61.78
32237;BME280;18726;44.732;10.550;2022-12-07T10:04:21;100980.84;;;25.17;46.32
32237;BME280;18726;44.732;10.550;2022-12-07T10:07:25;100972.81;;;24.90;48.62
32237;BME280;18726;44.732;10.550;2022-12-07T10:10:32;100962.34;;;23.65;52.91
32237;BME280;18726;44.732;10.550;2022-12-07T10:13:41;100954.22;;;22.48;60.38
32237;BME280;18726;44.732;10.550;2022-12-07T10:16:46;100949.78;;;21.73;60.24
32237;BME280;18726;44.732;10.550;2022-12-07T10:19:50;100956.19;;;20.02;70.22
32237;BME280;18726;44.732;10.550;2022-12-07T10:23:05;100944.47;;;18.11;76.67
32237;BME280;18726;44.732;10.550;2022-12-07T10:29:31;100936.91;;;15.94;100.00
32237;BME280;18726;44.732;10.550;2022-12-07T10:32:36;100933.44;;;15.64;100.00
32237;BME280;18726;44.732;10.550;2022-12-07T10:35:43;100929.41;;;15.88;100.00
32237;BME280;18726;44.732;10.550;2022-12-07T10:39:39;100932.16;;;16.32;100.00
32237;BME280;18726;44.732;10.550;2022-12-07T10:42:28;100925.97;;;18.51;80.68
32237;BME280;18726;44.732;10.550;2022-12-07T10:45:32;100926.75;;;17.98;85.26
32237;BME280;18726;44.732;10.550;2022-12-07T10:59:39;100914.81;;;17.44;93.45
32237;BME280;18726;44.732;10.550;2022-12-07T11:02:43;100899.66;;;16.88;89.73
32237;BME280;18726;44.732;10.550;2022-12-07T11:06:13;100898.97;;;16.44;91.06
32237;BME280;18726;44.732;10.550;2022-12-07T11:13:00;100878.16;;;16.36;100.00
32237;BME280;18726;44.732;10.550;2022-12-07T11:16:19;100879.44;;;16.56;90.50
32237;BME280;18726;44.732;10.550;2022-12-07T11:30:06;100858.41;;;17.93;82.12
32237;BME280;18726;44.732;10.550;2022-12-07T11:33:21;100861.56;;;18.02;80.12
32237;BME280;18726;44.732;10.550;2022-12-07T11:36:36;100858.34;;;17.50;81.35
32237;BME280;18726;44.732;10.550;2022-12-07T11:39:51;100847.25;;;17.18;97.14
32237;BME280;18726;44.732;10.550;2022-12-07T11:43:01;100844.81;;;16.96;90.68
32237;BME280;18726;44.732;10.550;2022-12-07T11:46:09;100837.75;;;16.95;82.06
32237;BME280;18726;44.732;10.550;2022-12-07T11:49:23;100840.50;;;16.91;85.52
32237;BME280;18726;44.732;10.550;2022-12-07T11:56:11;100839.84;;;16.50;88.10
32237;BME280;18726;44.732;10.550;2022-12-07T11:59:21;100841.63;;;16.25;88.47
32237;BME280;18726;44.732;10.550;2022-12-07T12:02:34;100836.41;;;16.05;88.21
32237;BME280;18726;44.732;10.550;2022-12-07T12:05:41;100844.16;;;15.96;92.41
32237;BME280;18726;44.732;10.550;2022-12-07T12:21:28;100838.13;;;14.76;100.00
32237;BME280;18726;44.732;10.550;2022-12-07T12:24:33;100819.38;;;14.48;100.00
32237;BME280;18726;44.732;10.550;2022-12-07T12:27:39;100831.47;;;14.47;100.00
32237;BME280;18726;44.732;10.550;2022-12-07T12:30:43;100821.53;;;14.35;100.00
32237;BME280;18726;44.732;10.550;2022-12-07T12:33:49;100820.50;;;14.20;100.00
32237;BME280;18726;44.732;10.550;2022-12-07T12:36:53;100827.47;;;13.92;100.00
32237;BME280;18726;44.732;10.550;2022-12-07T12:43:42;100815.22;;;13.17;100.00
32237;BME280;18726;44.732;10.550;2022-12-07T12:53:28;100811.34;;;12.44;100.00
32237;BME280;18726;44.732;10.550;2022-12-07T13:00:02;100804.38;;;12.47;100.00
32237;BME280;18726;44.732;10.550;2022-12-07T13:03:30;100805.88;;;12.44;100.00
32237;BME280;18726;44.732;10.550;2022-12-07T13:06:36;100803.47;;;12.39;100.00
32237;BME280;18726;44.732;10.550;2022-12-07T13:09:43;100801.63;;;12.28;100.00
32237;BME280;18726;44.732;10.550;2022-12-07T13:13:01;100794.34;;;12.16;100.00
32237;BME280;18726;44.732;10.550;2022-12-07T13:22:48;100789.78;;;12.20;100.00
32237;BME280;18726;44.732;10.550;2022-12-07T13:29:16;100786.63;;;12.18;100.00
32237;BME280;18726;44.732;10.550;2022-12-07T13:32:25;100789.25;;;11.67;100.00
32237;BME280;18726;44.732;10.550;2022-12-07T13:38:36;100779.88;;;11.65;100.00
32237;BME280;18726;44.732;10.550;2022-12-07T13:41:42;100783.38;;;11.49;100.00
32237;BME280;18726;44.732;10.550;2022-12-07T13:44:46;100777.94;;;11.49;100.00
32237;BME280;18726;44.732;10.550;2022-12-07T13:47:53;100787.06;;;11.41;100.00
32237;BME280;18726;44.732;10.550;2022-12-07T13:51:01;100782.31;;;11.38;100.00
32237;BME280;18726;44.732;10.550;2022-12-07T13:54:12;100785.16;;;11.14;100.00
32237;BME280;18726;44.732;10.550;2022-12-07T13:57:17;100780.38;;;10.95;100.00
32237;BME280;18726;44.732;10.550;2022-12-07T14:00:26;100780.47;;;10.99;100.00
32237;BME280;18726;44.732;10.550;2022-12-07T14:03:34;100775.03;;;10.99;100.00
32237;BME280;18726;44.732;10.550;2022-12-07T14:06:48;100772.56;;;10.94;100.00
32237;BME280;18726;44.732;10.550;2022-12-07T14:10:00;100779.25;;;10.56;100.00
32237;BME280;18726;44.732;10.550;2022-12-07T14:13:35;100775.56;;;9.88;100.00
32237;BME280;18726;44.732;10.550;2022-12-07T14:16:39;100779.84;;;9.64;100.00
32237;BME280;18726;44.732;10.550;2022-12-07T14:22:55;100786.41;;;9.88;100.00
32237;BME280;18726;44.732;10.550;2022-12-07T14:26:11;100770.50;;;9.98;100.00
32237;BME280;18726;44.732;10.550;2022-12-07T14:32:32;100774.00;;;9.74;100.00
32237;BME280;18726;44.732;10.550;2022-12-07T14:35:38;100773.53;;;9.72;100.00
32237;BME280;18726;44.732;10.550;2022-12-07T14:38:43;100786.53;;;9.91;100.00
32237;BME280;18726;44.732;10.550;2022-12-07T14:41:48;100776.81;;;10.02;100.00
32237;BME280;18726;44.732;10.550;2022-12-07T14:44:55;100777.47;;;10.11;100.00
32237;BME280;18726;44.732;10.550;2022-12-07T14:48:00;100777.94;;;10.13;100.00
32237;BME280;18726;44.732;10.550;2022-12-07T14:51:04;100792.44;;;10.05;100.00
32237;BME280;18726;44.732;10.550;2022-12-07T14:54:15;100800.09;;;9.79;100.00
32237;BME280;18726;44.732;10.550;2022-12-07T14:57:20;100794.19;;;9.65;100.00
32237;BME280;18726;44.732;10.550;2022-12-07T15:00:26;100788.09;;;9.68;100.00
32237;BME280;18726;44.732;10.550;2022-12-07T15:03:30;100785.59;;;9.63;100.00
32237;BME280;18726;44.732;10.550;2022-12-07T15:06:34;100783.78;;;9.55;100.00
32237;BME280;18726;44.732;10.550;2022-12-07T15:09:38;100789.91;;;9.52;100.00
32237;BME280;18726;44.732;10.550;2022-12-07T15:12:42;100792.78;;;9.34;100.00
32237;BME280;18726;44.732;10.550;2022-12-07T15:15:47;100798.84;;;9.19;100.00
32237;BME280;18726;44.732;10.550;2022-12-07T15:18:51;100799.50;;;9.16;100.00
32237;BME280;18726;44.732;10.550;2022-12-07T15:21:55;100801.50;;;9.07;100.00
32237;BME280;18726;44.732;10.550;2022-12-07T15:24:59;100788.28;;;9.05;100.00
32237;BME280;18726;44.732;10.550;2022-12-07T15:28:03;100801.25;;;9.00;100.00
32237;BME280;18726;44.732;10.550;2022-12-07T15:31:14;100798.59;;;9.12;100.00
32237;BME280;18726;44.732;10.550;2022-12-07T15:34:19;100796.16;;;9.19;100.00
32237;BME280;18726;44.732;10.550;2022-12-07T15:37:22;100796.81;;;9.28;100.00
32237;BME280;18726;44.732;10.550;2022-12-07T15:40:26;100793.63;;;9.14;100.00
32237;BME280;18726;44.732;10.550;2022-12-07T15:43:31;100796.09;;;9.07;100.00
32237;BME280;18726;44.732;10.550;2022-12-07T15:46:53;100786.91;;;8.99;100.00
32237;BME280;18726;44.732;10.550;2022-12-07T15:49:57;100783.91;;;9.13;100.00
32237;BME280;18726;44.732;10.550;2022-12-07T15:53:01;100779.91;;;9.31;100.00
32237;BME280;18726;44.732;10.550;2022-12-07T15:56:08;100780.34;;;9.00;100.00
32237;BME280;18726;44.732;10.550;2022-12-07T15:59:12;100778.13;;;9.02;100.00
32237;BME280;18726;44.732;10.550;2022-12-07T16:02:16;100779.41;;;9.17;100.00
32237;BME280;18726;44.732;10.550;2022-12-07T16:05:19;100771.97;;;9.26;100.00
32237;BME280;18726;44.732;10.550;2022-12-07T16:08:23;100785.50;;;9.14;100.00
32237;BME280;18726;44.732;10.550;2022-12-07T16:11:26;100788.69;;;9.16;100.00
32237;BME280;18726;44.732;10.550;2022-12-07T16:14:30;100789.59;;;8.87;100.00
32237;BME280;18726;44.732;10.550;2022-12-07T16:17:36;100785.97;;;8.95;100.00
32237;BME280;18726;44.732;10.550;2022-12-07T16:20:40;100785.81;;;8.79;100.00
32237;BME280;18726;44.732;10.550;2022-12-07T16:23:44;100779.72;;;8.83;100.00
32237;BME280;18726;44.732;10.550;2022-12-07T16:26:49;100783.09;;;8.79;100.00
32237;BME280;18726;44.732;10.550;2022-12-07T16:29:53;100782.91;;;8.85;100.00
32237;BME280;18726;44.732;10.550;2022-12-07T16:32:56;100790.16;;;8.72;100.00
32237;BME280;18726;44.732;10.550;2022-12-07T16:36:01;100781.59;;;8.91;100.00
32237;BME280;18726;44.732;10.550;2022-12-07T16:39:05;100785.16;;;8.83;100.00
32237;BME280;18726;44.732;10.550;2022-12-07T16:42:09;100785.97;;;8.95;100.00
32237;BME280;18726;44.732;10.550;2022-12-07T16:45:13;100795.13;;;8.91;100.00
32237;BME280;18726;44.732;10.550;2022-12-07T16:48:18;100787.00;;;8.91;100.00
32237;BME280;18726;44.732;10.550;2022-12-07T16:51:22;100789.44;;;8.42;100.00
32237;BME280;18726;44.732;10.550;2022-12-07T16:54:26;100799.59;;;8.16;100.00
32237;BME280;18726;44.732;10.550;2022-12-07T16:57:34;100795.47;;;8.09;100.00
32237;BME280;18726;44.732;10.550;2022-12-07T17:00:39;100795.13;;;8.20;100.00
32237;BME280;18726;44.732;10.550;2022-12-07T17:03:43;100797.63;;;8.33;100.00
32237;BME280;18726;44.732;10.550;2022-12-07T17:06:47;100797.63;;;8.25;100.00
32237;BME280;18726;44.732;10.550;2022-12-07T17:09:52;100791.91;;;8.26;100.00
32237;BME280;18726;44.732;10.550;2022-12-07T17:12:57;100799.00;;;8.39;100.00
32237;BME280;18726;44.732;10.550;2022-12-07T17:16:02;100793.06;;;8.46;100.00
32237;BME280;18726;44.732;10.550;2022-12-07T17:19:09;100799.56;;;8.54;100.00
32237;BME280;18726;44.732;10.550;2022-12-07T17:22:13;100796.50;;;8.34;100.00
32237;BME280;18726;44.732;10.550;2022-12-07T17:25:17;100799.94;;;8.43;100.00
32237;BME280;18726;44.732;10.550;2022-12-07T17:28:21;100804.25;;;7.77;100.00
32237;BME280;18726;44.732;10.550;2022-12-07T17:31:25;100803.03;;;7.95;100.00
32237;BME280;18726;44.732;10.550;2022-12-07T17:34:29;100806.69;;;7.99;100.00
32237;BME280;18726;44.732;10.550;2022-12-07T17:37:33;100818.13;;;7.67;100.00
32237;BME280;18726;44.732;10.550;2022-12-07T17:40:36;100815.78;;;7.95;100.00
32237;BME280;18726;44.732;10.550;2022-12-07T17:43:40;100801.97;;;8.17;100.00
32237;BME280;18726;44.732;10.550;2022-12-07T17:46:45;100808.09;;;8.05;100.00
32237;BME280;18726;44.732;10.550;2022-12-07T17:49:49;100807.34;;;7.96;100.00
32237;BME280;18726;44.732;10.550;2022-12-07T17:52:53;100806.28;;;7.80;100.00
32237;BME280;18726;44.732;10.550;2022-12-07T17:56:16;100792.34;;;8.07;100.00